Franklin, NJ (07416)

4:37 AM EDT on September 21, 2014 (GMT -0400)
KNJFRANK2 | Change Station
CLOSE
Current Station
Personal Weather Station
Location: Franklin, NJ
Elevation: 571 ft
Nearby Weather Stations

Elev 571 ft 41.12 °N, 74.59 °W | Updated 6 minutes ago

Overcast
Overcast
62.4 °F
Feels Like 62.4 °F
N
0.0
Wind Variable Wind from North
Gusts 0.0 mph

Today
High -- | Low -- °F
--% Chance of Precip.
Yesterday
High -- | Low -- °F
Precip. -- in
6:44 AM 6:57 PM
Waning Crescent, 8% visible
Pressure 29.95 in
Visibility 9.0 miles
Clouds Overcast 1000 ft
Dew Point 60 °F
Humidity 93%
Rainfall 0.00 in
Snow Depth Not available.
UV 0 out of 12
Pollen 2.60 out of 12
Air Quality Not available.
Flu Activity Not available.
METAR KFWN 210753Z AUTO 00000KT 9SM OVC010 16/14 A2995 RMK AO2 SLP141 T01610139

More Conditions Fewer Conditions

Pressure 29.95 in
Visibility 9.0 miles
Clouds Overcast 1000 ft
Dew Point 60 °F
Humidity 93%
Rainfall 0.00 in
Snow Depth Not available.
UV 0 out of 12
Pollen 2.60 out of 12
Air Quality Not available.
Flu Activity Not available.
METAR KFWN 210753Z AUTO 00000KT 9SM OVC010 16/14 A2995 RMK AO2 SLP141 T01610139

More Conditions Fewer Conditions

10-Day Weather Forecast

Almanac

Astronomy

Sep. 21, 2014 Rise Set
Actual Time 6:44 AM EDT 6:57 PM EDT
Civil Twilight 6:17 AM EDT 7:24 PM EDT
Nautical Twilight 5:45 AM EDT 7:56 PM EDT
Astronomical Twilight 5:12 AM EDT 8:29 PM EDT
Moon 4:15 AM EDT 5:32 PM EDT
Length of Visible Light 13h 07m
Length of Day
12h 12m
Tomorrow will be 2m 44s shorter.
Waning Crescent, 8% of the Moon is Illuminated
Today
Waning Crescent
Sep 24
New
Oct 1
First Quarter
Oct 8
Full
Oct 15
Last Quarter

Today's Extremes

State Highs State Lows

Community

WunderPhotos

Upload Photos

1,755,101 photos uploaded!

Nearby

Snow Depth

Station Depth Elevation
No new snow has been reported.

Earthquake Activity

City Distance Mag. Time & Date
No recent earthquake activity has been reported nearby.
Minimum magnitude displayed is 2.5.

Coastal Water Temperatures

Place Temperature
No Stations Reporting

Nearby Weather Stations